createdAt,value
2018-08-28T00:01:19.987Z,65.25
2018-08-28T00:03:48.075Z,65.25
2018-08-28T00:06:16.137Z,65.65
2018-08-28T00:08:44.187Z,65.64
2018-08-28T00:11:12.299Z,66.00
2018-08-28T00:13:40.373Z,66.45
2018-08-28T00:16:08.443Z,65.66
2018-08-28T00:18:36.520Z,65.35
2018-08-28T00:21:04.840Z,65.78
2018-08-28T00:23:32.904Z,65.84
2018-08-28T00:26:01.115Z,65.70
2018-08-28T00:28:29.171Z,65.68
2018-08-28T00:30:57.245Z,66.03
2018-08-28T00:33:25.454Z,65.98
2018-08-28T00:35:53.530Z,66.07
2018-08-28T00:38:21.583Z,65.53
2018-08-28T00:40:49.683Z,66.50
2018-08-28T00:43:17.755Z,66.09
2018-08-28T00:45:45.982Z,66.68
2018-08-28T00:48:14.029Z,66.08
2018-08-28T00:50:42.072Z,65.91
2018-08-28T00:53:10.279Z,66.32
2018-08-28T00:55:38.359Z,66.54
2018-08-28T00:58:06.456Z,66.62
2018-08-28T01:00:34.659Z,66.91
2018-08-28T01:03:02.723Z,66.64
2018-08-28T01:05:30.778Z,66.62
2018-08-28T01:07:58.846Z,66.89
2018-08-28T01:10:26.899Z,66.12
2018-08-28T01:12:54.958Z,66.55
2018-08-28T01:15:23.014Z,66.46
2018-08-28T01:17:51.074Z,66.85
2018-08-28T01:20:19.120Z,66.80
2018-08-28T01:22:47.168Z,66.09
2018-08-28T01:25:15.303Z,66.81
2018-08-28T01:27:43.355Z,67.22
2018-08-28T01:30:11.416Z,65.98
2018-08-28T01:32:39.666Z,66.92
2018-08-28T01:35:07.739Z,66.74
2018-08-28T01:37:35.818Z,67.28
2018-08-28T01:40:04.962Z,66.50
2018-08-28T01:42:33.018Z,67.00
2018-08-28T01:45:01.082Z,67.38
2018-08-28T01:47:29.287Z,66.81
2018-08-28T01:49:57.347Z,67.14
2018-08-28T01:52:25.411Z,67.05
2018-08-28T01:54:53.462Z,66.88
2018-08-28T01:57:21.533Z,66.98
2018-08-28T01:59:49.596Z,66.87
2018-08-28T02:02:17.666Z,67.31
2018-08-28T02:04:45.731Z,66.82
2018-08-28T02:07:13.794Z,67.35
2018-08-28T02:09:41.849Z,67.53
2018-08-28T02:12:09.910Z,67.17
2018-08-28T02:14:38.012Z,67.27
2018-08-28T02:17:06.138Z,67.40
2018-08-28T02:19:34.238Z,67.69
2018-08-28T02:22:02.287Z,66.77
2018-08-28T02:24:30.343Z,66.69
2018-08-28T02:26:58.454Z,67.53
2018-08-28T02:29:26.526Z,66.86
2018-08-28T02:31:54.619Z,66.87
2018-08-28T02:34:22.706Z,67.70
2018-08-28T02:36:50.766Z,66.94
2018-08-28T02:39:18.817Z,67.07
2018-08-28T02:41:46.883Z,67.32
2018-08-28T02:44:14.942Z,66.98
2018-08-28T02:46:43.179Z,67.75
2018-08-28T02:49:11.228Z,66.97
2018-08-28T02:51:39.322Z,67.90
2018-08-28T02:54:07.597Z,67.85
2018-08-28T02:56:35.651Z,67.77
2018-08-28T02:59:03.854Z,67.09
2018-08-28T03:01:31.913Z,67.43
2018-08-28T03:03:59.982Z,67.52
2018-08-28T03:06:28.046Z,67.29
2018-08-28T03:08:56.150Z,67.53
2018-08-28T03:11:24.249Z,67.57
2018-08-28T03:13:52.278Z,68.08
2018-08-28T03:16:20.395Z,67.84
2018-08-28T03:18:48.458Z,67.30
2018-08-28T03:21:16.674Z,67.25
2018-08-28T03:23:44.766Z,68.21
2018-08-28T03:26:12.831Z,67.85
2018-08-28T03:28:40.913Z,68.25
2018-08-28T03:31:08.982Z,67.62
2018-08-28T03:33:37.047Z,67.95
2018-08-28T03:36:05.111Z,67.98
2018-08-28T03:38:33.392Z,68.06
2018-08-28T03:41:01.490Z,67.82
2018-08-28T03:43:29.543Z,67.75
2018-08-28T03:45:57.658Z,67.90
2018-08-28T03:48:25.855Z,68.27
2018-08-28T03:50:53.983Z,68.02
2018-08-28T03:53:22.203Z,68.07
2018-08-28T03:55:50.332Z,67.95
2018-08-28T03:58:18.586Z,68.01
2018-08-28T04:00:46.660Z,67.94
2018-08-28T04:03:14.706Z,68.39
2018-08-28T04:05:42.858Z,68.42
2018-08-28T04:08:10.914Z,68.20
2018-08-28T04:10:39.018Z,67.29
2018-08-28T04:13:07.146Z,67.56
2018-08-28T04:15:35.231Z,67.95
2018-08-28T04:18:03.283Z,67.29
2018-08-28T04:20:31.399Z,67.86
2018-08-28T04:22:59.445Z,67.90
2018-08-28T04:25:27.537Z,67.98
2018-08-28T04:27:55.763Z,68.11
2018-08-28T04:30:23.870Z,67.50
2018-08-28T04:32:52.031Z,67.68
2018-08-28T04:35:20.360Z,68.33
2018-08-28T04:37:48.442Z,68.35
2018-08-28T04:40:16.689Z,67.66
2018-08-28T04:42:44.755Z,67.91
2018-08-28T04:45:12.925Z,67.73
2018-08-28T04:47:40.994Z,67.76
2018-08-28T04:50:09.057Z,68.10
2018-08-28T04:52:37.987Z,68.13
2018-08-28T04:55:06.533Z,67.56
2018-08-28T04:57:34.627Z,68.34
2018-08-28T05:00:02.667Z,68.31
2018-08-28T05:02:35.770Z,68.11
2018-08-28T05:05:05.572Z,68.12
2018-08-28T05:07:33.758Z,68.28
2018-08-28T05:10:01.871Z,67.97
2018-08-28T05:12:30.023Z,68.10
2018-08-28T05:14:58.859Z,68.81
2018-08-28T05:17:26.922Z,68.46
2018-08-28T05:19:55.227Z,68.31
2018-08-28T05:22:23.999Z,68.08
2018-08-28T05:24:52.546Z,68.24
2018-08-28T05:27:21.934Z,68.68
2018-08-28T05:29:50.205Z,68.82
2018-08-28T05:32:18.255Z,68.59
2018-08-28T05:34:46.938Z,68.62
2018-08-28T05:37:15.088Z,68.84
2018-08-28T05:39:43.142Z,68.76
2018-08-28T05:42:11.231Z,67.52
2018-08-28T05:44:39.342Z,68.25
2018-08-28T05:47:07.429Z,67.80
2018-08-28T05:49:35.637Z,68.57
2018-08-28T05:52:04.779Z,68.82
2018-08-28T05:54:32.851Z,68.85
2018-08-28T05:57:01.041Z,68.30
2018-08-28T05:59:29.114Z,68.86
2018-08-28T06:01:57.228Z,68.29
2018-08-28T06:04:25.340Z,68.39
2018-08-28T06:06:53.595Z,68.61
2018-08-28T06:09:21.684Z,67.96
2018-08-28T06:11:49.802Z,67.77
2018-08-28T06:14:17.894Z,68.61
2018-08-28T06:16:46.291Z,67.67
2018-08-28T06:19:14.393Z,68.33
2018-08-28T06:21:42.476Z,68.64
2018-08-28T06:24:11.114Z,68.16
2018-08-28T06:26:39.275Z,68.58
2018-08-28T06:29:07.588Z,68.24
2018-08-28T06:31:35.735Z,67.10
2018-08-28T06:34:03.846Z,68.23
2018-08-28T06:36:31.907Z,67.43
2018-08-28T06:39:00.458Z,67.82
2018-08-28T06:41:28.563Z,67.78
2018-08-28T06:43:56.707Z,67.71
2018-08-28T06:46:24.715Z,68.26
2018-08-28T06:48:52.854Z,68.44
2018-08-28T06:51:21.161Z,68.44
2018-08-28T06:53:49.588Z,67.89
2018-08-28T06:56:17.911Z,68.37
2018-08-28T06:58:46.008Z,67.83
2018-08-28T07:01:14.328Z,68.33
2018-08-28T07:03:42.513Z,68.18
2018-08-28T07:06:10.814Z,67.96
2018-08-28T07:08:38.935Z,68.16
2018-08-28T07:11:07.343Z,67.82
2018-08-28T07:13:35.437Z,67.82
2018-08-28T07:16:03.715Z,67.07
2018-08-28T07:18:32.102Z,67.97
2018-08-28T07:21:00.195Z,67.38
2018-08-28T07:23:28.313Z,66.97
2018-08-28T07:25:56.508Z,67.45
2018-08-28T07:28:24.515Z,67.13
2018-08-28T07:30:52.776Z,67.63
2018-08-28T07:33:21.195Z,67.61
2018-08-28T07:35:49.282Z,67.24
2018-08-28T07:38:17.850Z,67.60
2018-08-28T07:40:45.967Z,67.57
2018-08-28T07:43:14.119Z,67.02
2018-08-28T07:45:42.233Z,66.54
2018-08-28T07:48:10.474Z,66.12
2018-08-28T07:50:38.623Z,66.68
2018-08-28T07:53:06.711Z,66.60
2018-08-28T07:55:34.995Z,66.80
2018-08-28T07:58:03.127Z,66.51
2018-08-28T08:00:31.241Z,65.90
2018-08-28T08:02:59.790Z,65.85
2018-08-28T08:05:27.886Z,66.17
2018-08-28T08:07:55.990Z,65.22
2018-08-28T08:10:24.127Z,65.94
2018-08-28T08:12:52.204Z,65.52
2018-08-28T08:15:20.315Z,65.46
2018-08-28T08:17:48.459Z,65.69
2018-08-28T08:20:16.547Z,64.64
2018-08-28T08:22:44.655Z,64.11
2018-08-28T08:25:12.762Z,64.33
2018-08-28T08:27:41.176Z,64.88
2018-08-28T08:30:09.355Z,64.82
2018-08-28T08:32:37.444Z,64.45
2018-08-28T08:35:06.531Z,64.51
2018-08-28T08:37:34.932Z,63.89
2018-08-28T08:40:03.031Z,63.62
2018-08-28T08:42:31.123Z,62.98
2018-08-28T08:44:59.520Z,63.28
2018-08-28T08:47:27.598Z,63.55
2018-08-28T08:49:55.689Z,63.05
2018-08-28T08:52:23.835Z,63.25
2018-08-28T08:54:51.964Z,61.94
2018-08-28T08:57:20.041Z,63.08
2018-08-28T08:59:48.126Z,63.23
2018-08-28T09:02:16.271Z,62.56
2018-08-28T09:04:44.359Z,62.23
2018-08-28T09:07:12.745Z,62.05
2018-08-28T09:09:40.843Z,62.41
2018-08-28T09:12:15.628Z,62.32
2018-08-28T09:14:43.720Z,62.59
2018-08-28T09:17:11.818Z,62.75
2018-08-28T09:19:40.045Z,62.80
2018-08-28T09:22:08.170Z,63.03
2018-08-28T09:24:36.336Z,63.04
2018-08-28T09:27:04.787Z,62.42
2018-08-28T09:29:33.059Z,62.80
2018-08-28T09:32:01.196Z,61.63
2018-08-28T09:34:29.511Z,62.52
2018-08-28T09:36:57.592Z,61.90
2018-08-28T09:39:25.695Z,61.66
2018-08-28T09:41:53.807Z,61.58
2018-08-28T09:44:22.667Z,60.88
2018-08-28T09:46:50.775Z,61.67
2018-08-28T09:49:18.864Z,61.35
2018-08-28T09:51:46.976Z,61.12
2018-08-28T09:54:15.068Z,61.33
2018-08-28T09:56:43.220Z,61.57
2018-08-28T09:59:11.444Z,60.95
2018-08-28T10:01:45.027Z,60.73
2018-08-28T10:04:14.268Z,61.55
2018-08-28T10:06:42.435Z,61.69
2018-08-28T10:09:13.114Z,61.37
2018-08-28T10:11:41.902Z,61.75
2018-08-28T10:14:10.755Z,61.63
2018-08-28T10:16:39.039Z,61.35
2018-08-28T10:19:07.650Z,61.01
2018-08-28T10:21:36.131Z,60.35
2018-08-28T10:24:04.444Z,60.96
2018-08-28T10:26:33.099Z,59.68
2018-08-28T10:29:01.387Z,60.27
2018-08-28T10:31:29.564Z,60.16
2018-08-28T10:33:57.822Z,59.80
2018-08-28T10:36:26.087Z,59.82
2018-08-28T10:38:54.183Z,59.76
2018-08-28T10:41:22.746Z,58.67
2018-08-28T10:43:50.856Z,59.54
2018-08-28T10:46:19.067Z,57.98
2018-08-28T10:48:47.578Z,59.02
2018-08-28T10:51:16.584Z,58.85
2018-08-28T10:53:45.243Z,57.81
2018-08-28T10:56:13.340Z,57.26
2018-08-28T10:58:41.469Z,57.48
2018-08-28T11:01:09.772Z,55.85
2018-08-28T11:03:37.946Z,55.22
2018-08-28T11:06:06.026Z,54.85
2018-08-28T11:08:34.139Z,55.62
2018-08-28T11:11:02.208Z,55.00
2018-08-28T11:13:30.329Z,54.82
2018-08-28T11:15:58.417Z,54.51
2018-08-28T11:18:26.530Z,54.00
2018-08-28T11:20:54.753Z,55.34
2018-08-28T11:23:23.066Z,54.99
2018-08-28T11:25:51.406Z,55.64
2018-08-28T11:28:19.531Z,53.22
2018-08-28T11:30:47.635Z,53.46
2018-08-28T11:33:16.031Z,53.59
2018-08-28T11:35:44.210Z,53.72
2018-08-28T11:38:12.258Z,52.86
2018-08-28T11:40:40.747Z,52.92
2018-08-28T11:43:08.844Z,53.49
2018-08-28T11:45:37.288Z,52.50
2018-08-28T11:48:06.007Z,52.11
2018-08-28T11:50:34.119Z,50.56
2018-08-28T11:53:02.384Z,50.85
2018-08-28T11:55:31.047Z,50.92
2018-08-28T11:57:59.103Z,51.26
2018-08-28T12:00:27.211Z,50.47
2018-08-28T12:02:55.300Z,50.17
2018-08-28T12:05:23.559Z,50.19
2018-08-28T12:07:52.626Z,49.76
2018-08-28T12:10:20.778Z,48.93
2018-08-28T12:12:48.851Z,48.83
2018-08-28T12:15:16.922Z,50.21
2018-08-28T12:17:45.155Z,48.87
2018-08-28T12:20:13.241Z,48.81
2018-08-28T12:22:41.324Z,48.57
2018-08-28T12:25:10.134Z,48.30
2018-08-28T12:27:38.408Z,49.38
2018-08-28T12:30:07.328Z,48.66
2018-08-28T12:32:35.396Z,46.05
2018-08-28T12:35:03.471Z,46.61
2018-08-28T12:37:31.560Z,45.72
2018-08-28T12:39:59.782Z,45.37
2018-08-28T12:42:27.859Z,44.68
2018-08-28T12:44:56.166Z,45.04
2018-08-28T12:47:24.530Z,45.08
2018-08-28T12:49:52.615Z,44.11
2018-08-28T12:52:20.962Z,43.82
2018-08-28T12:54:49.108Z,44.35
2018-08-28T12:57:17.373Z,43.88
2018-08-28T12:59:45.630Z,44.49
2018-08-28T13:02:14.060Z,44.50
2018-08-28T13:04:42.050Z,45.38
2018-08-28T13:07:10.355Z,43.01
2018-08-28T13:09:38.373Z,42.73
2018-08-28T13:12:06.477Z,43.07
2018-08-28T13:14:34.861Z,42.67
2018-08-28T13:17:02.910Z,41.61
2018-08-28T13:19:31.008Z,42.52
2018-08-28T13:21:59.109Z,41.50
2018-08-28T13:24:27.195Z,41.28
2018-08-28T13:26:55.332Z,42.16
2018-08-28T13:29:23.602Z,42.74
2018-08-28T13:31:51.702Z,42.04
2018-08-28T13:34:19.787Z,42.53
2018-08-28T13:36:47.891Z,41.83
2018-08-28T13:39:16.198Z,41.64
2018-08-28T13:41:44.628Z,41.74
2018-08-28T13:44:13.623Z,43.07
2018-08-28T13:46:41.708Z,41.13
2018-08-28T13:49:09.810Z,42.91
2018-08-28T13:51:38.353Z,42.19
2018-08-28T13:54:06.479Z,42.42
2018-08-28T13:56:34.559Z,42.82
2018-08-28T13:59:03.066Z,42.40
2018-08-28T14:01:31.164Z,42.96
2018-08-28T14:03:59.236Z,42.45
2018-08-28T14:06:27.416Z,43.81
2018-08-28T14:08:55.496Z,42.58
2018-08-28T14:11:23.637Z,42.91
2018-08-28T14:13:51.802Z,42.31
2018-08-28T14:16:19.803Z,42.88
2018-08-28T14:18:48.386Z,43.19
2018-08-28T14:21:16.449Z,43.90
2018-08-28T14:23:44.571Z,42.63
2018-08-28T14:26:12.688Z,42.07
2018-08-28T14:28:40.836Z,42.66
2018-08-28T14:31:09.072Z,42.68
2018-08-28T14:33:37.151Z,42.07
2018-08-28T14:36:05.508Z,42.28
2018-08-28T14:38:33.887Z,42.80
2018-08-28T14:41:01.997Z,42.39
2018-08-28T14:43:30.245Z,42.30
2018-08-28T14:45:58.328Z,42.31
2018-08-28T14:48:26.425Z,42.34
2018-08-28T14:50:54.517Z,42.44
2018-08-28T14:53:23.557Z,42.51
2018-08-28T14:55:51.644Z,42.50
2018-08-28T14:58:19.724Z,42.46
2018-08-28T15:00:47.827Z,41.23
2018-08-28T15:03:15.934Z,41.54
2018-08-28T15:05:44.082Z,42.92
2018-08-28T15:08:12.218Z,42.04
2018-08-28T15:10:40.345Z,42.35
2018-08-28T15:13:08.441Z,41.85
2018-08-28T15:15:36.752Z,42.69
2018-08-28T15:18:04.852Z,44.06
2018-08-28T15:20:32.967Z,43.03
2018-08-28T15:23:01.232Z,44.50
2018-08-28T15:25:29.288Z,44.42
2018-08-28T15:27:57.376Z,43.63
2018-08-28T15:30:25.482Z,44.44
2018-08-28T15:32:53.657Z,44.27
2018-08-28T15:35:21.743Z,44.79
2018-08-28T15:37:49.860Z,44.66
2018-08-28T15:40:17.994Z,44.99
2018-08-28T15:42:46.172Z,44.27
2018-08-28T15:45:14.262Z,44.11
2018-08-28T15:47:42.343Z,43.39
2018-08-28T15:50:10.437Z,44.49
2018-08-28T15:52:38.532Z,44.31
2018-08-28T15:55:06.645Z,44.10
2018-08-28T15:57:34.756Z,44.63
2018-08-28T16:00:02.879Z,44.83
2018-08-28T16:02:30.961Z,45.65
2018-08-28T16:04:59.122Z,45.40
2018-08-28T16:07:27.208Z,44.68
2018-08-28T16:09:55.291Z,44.61
2018-08-28T16:12:23.750Z,44.39
2018-08-28T16:14:52.055Z,43.84
2018-08-28T16:17:20.146Z,44.61
2018-08-28T16:19:48.224Z,44.92
2018-08-28T16:22:20.429Z,46.40
2018-08-28T16:24:48.673Z,45.95
2018-08-28T16:27:16.794Z,46.21
2018-08-28T16:29:45.083Z,46.05
2018-08-28T16:32:13.134Z,45.45
2018-08-28T16:34:41.446Z,45.68
2018-08-28T16:37:09.998Z,45.65
2018-08-28T16:39:38.079Z,46.69
2018-08-28T16:42:06.088Z,47.23
2018-08-28T16:44:34.680Z,46.41
2018-08-28T16:47:02.810Z,47.11
2018-08-28T16:49:31.153Z,47.06
2018-08-28T16:52:05.488Z,47.04
2018-08-28T16:54:33.767Z,48.13
2018-08-28T16:57:01.877Z,47.62
2018-08-28T16:59:29.954Z,47.55
2018-08-28T17:01:58.052Z,47.65
2018-08-28T17:04:26.099Z,48.16
2018-08-28T17:06:54.198Z,48.87
2018-08-28T17:09:22.425Z,48.58
2018-08-28T17:11:50.496Z,49.22
2018-08-28T17:14:18.588Z,49.50
2018-08-28T17:16:46.806Z,48.87
2018-08-28T17:19:14.956Z,50.14
2018-08-28T17:21:42.979Z,49.67
2018-08-28T17:24:11.234Z,49.88
2018-08-28T17:26:39.309Z,49.95
2018-08-28T17:29:07.394Z,49.73
2018-08-28T17:34:02.604Z,50.78
2018-08-28T17:36:30.793Z,49.96
2018-08-28T17:38:58.882Z,50.03
2018-08-28T17:41:26.943Z,50.30
2018-08-28T17:43:55.167Z,51.00
2018-08-28T17:46:23.252Z,51.24
2018-08-28T17:48:51.379Z,51.83
2018-08-28T17:51:19.420Z,52.33
2018-08-28T17:53:47.499Z,51.64
2018-08-28T17:56:15.579Z,52.84
2018-08-28T17:58:43.810Z,52.81
2018-08-28T18:01:11.984Z,53.18
2018-08-28T18:03:40.039Z,52.67
2018-08-28T18:06:08.129Z,52.87
2018-08-28T18:08:36.191Z,53.94
2018-08-28T18:11:04.664Z,53.35
2018-08-28T18:13:32.753Z,54.00
2018-08-28T18:16:00.863Z,53.84
2018-08-28T18:18:28.934Z,54.09
2018-08-28T18:20:57.044Z,54.95
2018-08-28T18:23:25.119Z,54.40
2018-08-28T18:25:53.205Z,54.19
2018-08-28T18:28:21.293Z,55.32
2018-08-28T18:30:49.371Z,55.44
2018-08-28T18:33:17.450Z,55.23
2018-08-28T18:35:45.555Z,55.50
2018-08-28T18:38:14.134Z,55.75
2018-08-28T18:40:42.218Z,55.79
2018-08-28T18:43:10.347Z,56.41
2018-08-28T18:45:38.429Z,56.39
2018-08-28T18:48:06.499Z,55.88
2018-08-28T18:50:34.615Z,56.96
2018-08-28T18:53:02.686Z,56.17
2018-08-28T18:55:30.994Z,56.88
2018-08-28T18:57:59.077Z,57.23
2018-08-28T19:00:27.154Z,57.34
2018-08-28T19:02:55.332Z,57.29
2018-08-28T19:05:23.389Z,57.20
2018-08-28T19:07:51.506Z,57.20
2018-08-28T19:10:19.533Z,57.53
2018-08-28T19:12:47.780Z,57.44
2018-08-28T19:15:15.874Z,58.04
2018-08-28T19:17:43.966Z,57.95
2018-08-28T19:20:12.051Z,58.39
2018-08-28T19:22:40.171Z,58.96
2018-08-28T19:25:08.288Z,58.37
2018-08-28T19:27:36.374Z,58.60
2018-08-28T19:30:04.676Z,59.46
2018-08-28T19:32:32.911Z,59.38
2018-08-28T19:35:01.056Z,59.02
2018-08-28T19:37:29.231Z,59.58
2018-08-28T19:39:57.348Z,59.34
2018-08-28T19:42:25.436Z,59.76
2018-08-28T19:44:53.509Z,60.15
2018-08-28T19:47:21.707Z,59.93
2018-08-28T19:49:49.790Z,59.61
2018-08-28T19:52:17.853Z,60.23
2018-08-28T19:54:45.966Z,60.28
2018-08-28T19:57:14.210Z,60.20
2018-08-28T19:59:42.325Z,60.82
2018-08-28T20:02:10.475Z,60.59
2018-08-28T20:04:38.733Z,60.47
2018-08-28T20:07:06.844Z,60.60
2018-08-28T20:09:34.920Z,60.73
2018-08-28T20:12:03.159Z,60.88
2018-08-28T20:14:31.284Z,61.16
2018-08-28T20:16:59.382Z,60.63
2018-08-28T20:19:27.476Z,61.34
2018-08-28T20:21:55.559Z,61.16
2018-08-28T20:24:23.624Z,61.09
2018-08-28T20:26:51.905Z,60.86
2018-08-28T20:29:19.958Z,61.12
2018-08-28T20:31:48.047Z,61.74
2018-08-28T20:34:16.134Z,61.93
2018-08-28T20:36:44.441Z,62.13
2018-08-28T20:39:12.524Z,62.44
2018-08-28T20:41:40.607Z,61.95
2018-08-28T20:44:08.686Z,62.59
2018-08-28T20:46:36.748Z,61.92
2018-08-28T20:49:04.899Z,61.95
2018-08-28T20:51:33.031Z,62.29
2018-08-28T20:54:01.126Z,62.74
2018-08-28T20:56:29.193Z,62.69
2018-08-28T20:58:57.318Z,62.23
2018-08-28T21:01:25.403Z,62.25
2018-08-28T21:03:53.488Z,62.93
2018-08-28T21:06:21.729Z,62.99
2018-08-28T21:08:49.819Z,63.16
2018-08-28T21:11:17.894Z,63.52
2018-08-28T21:13:45.981Z,63.79
2018-08-28T21:16:14.058Z,63.30
2018-08-28T21:18:42.130Z,63.74
2018-08-28T21:21:10.231Z,63.26
2018-08-28T21:23:38.325Z,63.91
2018-08-28T21:26:06.605Z,63.73
2018-08-28T21:28:34.802Z,63.85
2018-08-28T21:31:02.881Z,64.32
2018-08-28T21:33:31.011Z,64.09
2018-08-28T21:35:59.234Z,64.39
2018-08-28T21:38:27.334Z,63.60
2018-08-28T21:40:55.411Z,64.15
2018-08-28T21:43:23.539Z,64.06
2018-08-28T21:45:51.606Z,64.07
2018-08-28T21:48:19.779Z,63.82
2018-08-28T21:50:47.766Z,63.87
2018-08-28T21:53:15.851Z,64.54
2018-08-28T21:55:44.094Z,64.71
2018-08-28T21:58:12.175Z,64.54
2018-08-28T22:00:40.244Z,63.86
2018-08-28T22:03:08.495Z,64.71
2018-08-28T22:05:36.562Z,64.56
2018-08-28T22:08:05.551Z,65.07
2018-08-28T22:10:33.873Z,65.03
2018-08-28T22:13:01.990Z,64.64
2018-08-28T22:15:30.090Z,65.35
2018-08-28T22:17:58.306Z,64.24
2018-08-28T22:20:26.385Z,65.00
2018-08-28T22:22:54.450Z,64.53
2018-08-28T22:25:22.665Z,64.40
2018-08-28T22:27:50.740Z,64.95
2018-08-28T22:30:18.810Z,65.08
2018-08-28T22:32:47.043Z,65.30
2018-08-28T22:35:15.111Z,65.42
2018-08-28T22:37:43.188Z,65.27
2018-08-28T22:40:12.186Z,65.15
2018-08-28T22:42:40.254Z,65.08
2018-08-28T22:45:08.320Z,65.11
2018-08-28T22:47:36.390Z,65.77
2018-08-28T22:50:05.888Z,65.27
2018-08-28T22:52:33.956Z,65.95
2018-08-28T22:55:02.135Z,65.67
2018-08-28T22:57:30.206Z,66.02
2018-08-28T22:59:58.278Z,66.14
2018-08-28T23:02:26.341Z,65.93
2018-08-28T23:04:54.446Z,65.98
2018-08-28T23:07:22.571Z,65.28
2018-08-28T23:09:50.662Z,66.24
2018-08-28T23:12:18.755Z,65.89
2018-08-28T23:14:46.839Z,66.62
2018-08-28T23:17:14.952Z,66.11
2018-08-28T23:19:43.042Z,66.28
2018-08-28T23:22:11.105Z,67.10
2018-08-28T23:24:39.231Z,66.28
2018-08-28T23:27:07.346Z,66.59
2018-08-28T23:29:35.592Z,67.53
2018-08-28T23:32:03.688Z,66.87
2018-08-28T23:34:31.751Z,66.48
2018-08-28T23:36:59.835Z,66.54
2018-08-28T23:39:27.899Z,66.44
2018-08-28T23:41:55.966Z,67.13
2018-08-28T23:44:24.068Z,66.87
2018-08-28T23:46:52.139Z,66.66
2018-08-28T23:49:20.205Z,66.41
2018-08-28T23:51:48.435Z,67.07
2018-08-28T23:54:16.538Z,67.33
2018-08-28T23:56:44.599Z,66.40
2018-08-28T23:59:12.712Z,67.38
